createdAt,value
2023-02-02T00:02:04.355Z,40.85
2023-02-02T00:07:08.944Z,22.27
2023-02-02T00:12:13.611Z,21.98
2023-02-02T00:17:19.631Z,18.98
2023-02-02T00:22:24.107Z,19.63
2023-02-02T00:27:28.596Z,18.83
2023-02-02T00:32:34.765Z,15.75
2023-02-02T00:37:39.207Z,19.45
2023-02-02T00:42:49.145Z,11.57
2023-02-02T00:47:57.551Z,15.85
2023-02-02T00:53:02.088Z,10.27
2023-02-02T00:58:06.640Z,12.07
2023-02-02T01:03:13.468Z,10.52
2023-02-02T01:08:18.064Z,10.48
2023-02-02T01:13:22.660Z,13.05
2023-02-02T01:18:29.420Z,10.02
2023-02-02T01:23:35.098Z,11.88
2023-02-02T01:28:40.520Z,12.90
2023-02-02T01:33:48.078Z,7.15
2023-02-02T01:38:53.071Z,10.20
2023-02-02T01:44:00.310Z,9.45
2023-02-02T01:49:09.541Z,10.45
2023-02-02T01:54:18.478Z,13.20
2023-02-02T01:59:24.019Z,7.68
2023-02-02T02:09:36.462Z,7.57
2023-02-02T02:14:58.547Z,6.72
2023-02-02T02:20:56.528Z,6.97
2023-02-02T02:26:37.735Z,7.43
2023-02-02T02:32:15.635Z,8.10
2023-02-02T02:37:30.717Z,8.67
2023-02-02T02:42:39.226Z,12.57
2023-02-02T02:47:46.266Z,9.43
2023-02-02T02:52:57.697Z,8.25
2023-02-02T02:58:11.210Z,6.75
2023-02-02T03:03:25.361Z,8.98
2023-02-02T03:08:35.228Z,10.75
2023-02-02T03:13:41.092Z,6.07
2023-02-02T03:18:47.366Z,6.82
2023-02-02T03:23:52.159Z,4.82
2023-02-02T03:28:58.496Z,7.85
2023-02-02T03:34:04.523Z,14.88
2023-02-02T03:39:09.140Z,3.92
2023-02-02T03:44:13.704Z,4.70
2023-02-02T03:49:19.805Z,5.13
2023-02-02T03:54:24.464Z,4.30
2023-02-02T03:59:29.005Z,2.67
2023-02-02T04:04:35.027Z,2.63
2023-02-02T04:09:39.686Z,3.47
2023-02-02T04:14:44.333Z,4.75
2023-02-02T04:19:53.261Z,4.70
2023-02-02T04:24:57.867Z,4.50
2023-02-02T04:30:03.059Z,6.37
2023-02-02T04:35:10.393Z,3.20
2023-02-02T04:40:16.124Z,5.47
2023-02-02T04:45:21.256Z,7.90
2023-02-02T04:50:28.301Z,4.90
2023-02-02T04:55:38.563Z,5.85
2023-02-02T05:00:43.097Z,5.90
2023-02-02T05:05:49.087Z,9.75
2023-02-02T05:10:53.698Z,5.63
2023-02-02T05:15:58.144Z,4.63
2023-02-02T05:21:05.169Z,7.32
2023-02-02T05:26:13.031Z,10.13
2023-02-02T05:31:17.992Z,12.60
2023-02-02T05:36:24.310Z,10.32
2023-02-02T05:41:28.719Z,9.68
2023-02-02T05:46:34.302Z,11.95
2023-02-02T05:56:46.580Z,8.57
2023-02-02T06:01:51.275Z,7.83
2023-02-02T06:06:58.520Z,11.02
2023-02-02T06:12:02.997Z,11.13
2023-02-02T06:17:10.431Z,10.05
2023-02-02T06:22:16.938Z,10.50
2023-02-02T06:27:21.531Z,15.20
2023-02-02T06:32:26.437Z,9.38
2023-02-02T06:37:34.230Z,13.45
2023-02-02T06:42:41.000Z,11.93
2023-02-02T06:47:46.479Z,11.48
2023-02-02T06:52:54.097Z,12.73
2023-02-02T06:58:01.817Z,10.45
2023-02-02T07:03:10.029Z,13.05
2023-02-02T07:08:19.209Z,15.25
2023-02-02T07:13:24.741Z,20.85
2023-02-02T07:18:29.287Z,15.55
2023-02-02T07:23:35.687Z,17.20
2023-02-02T07:28:40.132Z,16.50
2023-02-02T07:33:45.447Z,25.88
2023-02-02T07:38:53.906Z,43.97
2023-02-02T07:43:58.513Z,14.40
2023-02-02T07:49:02.918Z,16.05
2023-02-02T07:54:09.789Z,19.25
2023-02-02T07:59:14.411Z,19.85
2023-02-02T08:04:18.973Z,13.90
2023-02-02T08:09:24.990Z,10.65
2023-02-02T08:14:35.574Z,10.23
2023-02-02T08:19:40.541Z,12.85
2023-02-02T08:24:46.593Z,13.25
2023-02-02T08:29:51.223Z,12.27
2023-02-02T08:34:55.888Z,17.40
2023-02-02T08:40:01.959Z,11.95
2023-02-02T08:46:01.997Z,13.00
2023-02-02T08:50:32.200Z,17.20
2023-02-02T08:55:38.180Z,11.55
2023-02-02T09:00:42.980Z,17.80
2023-02-02T09:05:47.706Z,13.93
2023-02-02T09:10:54.414Z,10.53
2023-02-02T09:16:01.294Z,17.02
2023-02-02T09:21:08.168Z,15.98
2023-02-02T09:26:16.823Z,12.45
2023-02-02T09:31:22.197Z,11.82
2023-02-02T09:36:28.141Z,11.88
2023-02-02T09:42:01.012Z,6.88
2023-02-02T09:47:15.949Z,7.53
2023-02-02T09:52:27.142Z,11.60
2023-02-02T09:57:39.324Z,11.63
2023-02-02T10:02:47.525Z,13.98
2023-02-02T10:07:58.267Z,11.30
2023-02-02T10:13:12.060Z,6.68
2023-02-02T10:18:22.444Z,10.15
2023-02-02T10:23:30.640Z,11.48
2023-02-02T10:28:44.628Z,9.15
2023-02-02T10:34:03.745Z,7.35
2023-02-02T10:39:17.843Z,17.60
2023-02-02T10:44:33.452Z,16.95
2023-02-02T10:49:40.732Z,9.10
2023-02-02T10:54:59.761Z,8.48
2023-02-02T11:00:17.294Z,9.85
2023-02-02T11:05:42.494Z,7.40
2023-02-02T11:10:49.042Z,14.50
2023-02-02T11:16:22.181Z,13.27
2023-02-02T11:21:29.260Z,8.80
2023-02-02T11:26:46.999Z,20.38
2023-02-02T11:31:53.241Z,10.73
2023-02-02T11:37:03.737Z,12.40
2023-02-02T11:42:14.956Z,12.70
2023-02-02T11:47:28.652Z,6.50
2023-02-02T11:52:35.109Z,15.27
2023-02-02T11:57:39.873Z,12.75
2023-02-02T12:02:50.326Z,11.68
2023-02-02T12:07:55.167Z,14.48
2023-02-02T12:13:07.039Z,6.25
2023-02-02T12:18:33.354Z,6.05
2023-02-02T12:23:54.925Z,6.07
2023-02-02T12:29:27.506Z,5.45
2023-02-02T12:34:45.844Z,7.90
2023-02-02T12:40:04.389Z,6.32
2023-02-02T12:45:27.148Z,9.15
2023-02-02T12:50:40.797Z,9.48
2023-02-02T12:55:50.359Z,10.32
2023-02-02T13:01:18.247Z,8.73
2023-02-02T13:06:42.829Z,8.82
2023-02-02T13:11:52.447Z,9.15
2023-02-02T13:17:02.475Z,17.42
2023-02-02T13:22:14.684Z,11.90
2023-02-02T13:27:22.967Z,13.40
2023-02-02T13:32:32.428Z,9.63
2023-02-02T13:37:49.860Z,10.43
2023-02-02T13:43:00.115Z,13.00
2023-02-02T13:48:16.137Z,10.73
2023-02-02T13:53:42.490Z,8.15
2023-02-02T13:59:03.521Z,8.90
2023-02-02T14:04:22.673Z,8.73
2023-02-02T14:09:31.396Z,10.50
2023-02-02T14:14:39.163Z,10.30
2023-02-02T14:19:59.516Z,8.32
2023-02-02T14:25:29.002Z,8.02
2023-02-02T14:30:38.821Z,13.15
2023-02-02T14:36:07.002Z,12.68
2023-02-02T14:41:49.550Z,13.95
2023-02-02T14:47:03.263Z,10.80
2023-02-02T14:52:24.526Z,11.25
2023-02-02T14:57:32.692Z,13.05
2023-02-02T15:02:42.121Z,9.98
2023-02-02T15:07:54.788Z,10.65
2023-02-02T15:13:08.699Z,11.13
2023-02-02T15:18:17.147Z,10.85
2023-02-02T15:23:30.540Z,11.15
2023-02-02T15:28:43.455Z,16.23
2023-02-02T15:33:51.807Z,8.75
2023-02-02T15:38:59.377Z,8.38
2023-02-02T15:44:20.273Z,9.70
2023-02-02T15:49:34.694Z,13.50
2023-02-02T15:54:40.165Z,10.77
2023-02-02T15:59:46.276Z,9.27
2023-02-02T16:04:52.617Z,9.88
2023-02-02T16:09:57.775Z,7.82
2023-02-02T16:15:03.961Z,7.35
2023-02-02T16:20:17.832Z,8.65
2023-02-02T16:25:25.568Z,9.18
2023-02-02T16:30:35.732Z,9.68
2023-02-02T16:35:42.107Z,8.18
2023-02-02T16:40:46.646Z,7.90
2023-02-02T16:45:57.681Z,11.10
2023-02-02T16:51:14.230Z,9.00
2023-02-02T16:56:27.725Z,11.52
2023-02-02T17:01:40.783Z,8.07
2023-02-02T17:06:52.785Z,11.30
2023-02-02T17:12:03.746Z,11.38
2023-02-02T17:17:11.477Z,11.52
2023-02-02T17:22:18.281Z,14.70
2023-02-02T17:27:27.666Z,11.52
2023-02-02T17:32:35.169Z,11.35
2023-02-02T17:37:39.641Z,13.07
2023-02-02T17:42:45.665Z,10.15
2023-02-02T17:47:52.201Z,12.50
2023-02-02T17:52:56.692Z,6.18
2023-02-02T17:58:01.350Z,6.97
2023-02-02T18:03:12.510Z,5.33
2023-02-02T18:08:17.177Z,10.65
2023-02-02T18:13:23.592Z,8.00
2023-02-02T18:18:30.080Z,5.95
2023-02-02T18:23:34.703Z,7.72
2023-02-02T18:28:40.230Z,7.20
2023-02-02T18:33:46.221Z,5.20
2023-02-02T18:38:53.812Z,8.20
2023-02-02T18:43:58.453Z,8.60
2023-02-02T18:49:06.734Z,8.48
2023-02-02T18:54:12.669Z,8.23
2023-02-02T18:59:17.680Z,8.57
2023-02-02T19:04:23.796Z,11.23
2023-02-02T19:09:28.414Z,7.05
2023-02-02T19:14:36.909Z,11.60
2023-02-02T19:19:43.573Z,10.35
2023-02-02T19:24:48.572Z,10.32
2023-02-02T19:29:56.716Z,11.40
2023-02-02T19:35:03.000Z,10.93
2023-02-02T19:40:19.349Z,8.43
2023-02-02T19:45:27.200Z,10.23
2023-02-02T19:50:41.039Z,10.43
2023-02-02T19:55:45.985Z,9.35
2023-02-02T20:00:52.223Z,9.63
2023-02-02T20:06:00.788Z,5.82
2023-02-02T20:11:24.795Z,9.13
2023-02-02T20:16:39.283Z,10.32
2023-02-02T20:21:48.472Z,8.55
2023-02-02T20:26:54.591Z,8.07
2023-02-02T20:32:00.428Z,48.72
2023-02-02T20:37:17.624Z,49.13
2023-02-02T20:42:22.914Z,51.90
2023-02-02T20:47:27.625Z,17.65
2023-02-02T20:52:34.398Z,26.73
2023-02-02T20:57:40.421Z,13.57
2023-02-02T21:07:54.949Z,21.88
2023-02-02T21:12:59.616Z,16.05
2023-02-02T21:18:04.583Z,19.55
2023-02-02T21:23:11.055Z,15.47
2023-02-02T21:28:15.966Z,11.65
2023-02-02T21:33:20.716Z,11.20
2023-02-02T21:38:26.743Z,7.35
2023-02-02T21:43:31.234Z,9.00
2023-02-02T21:48:39.781Z,7.15
2023-02-02T21:53:46.575Z,10.95
2023-02-02T21:58:51.327Z,6.95
2023-02-02T22:03:56.370Z,11.20
2023-02-02T22:09:14.298Z,8.82
2023-02-02T22:14:24.700Z,14.60
2023-02-02T22:19:35.117Z,20.35
2023-02-02T22:24:41.543Z,12.88
2023-02-02T22:29:46.742Z,11.10
2023-02-02T22:34:51.273Z,8.10
2023-02-02T22:39:58.589Z,8.07
2023-02-02T22:45:05.782Z,9.15
2023-02-02T22:50:11.042Z,9.27
2023-02-02T22:55:18.879Z,7.93
2023-02-02T23:00:26.408Z,10.10
2023-02-02T23:05:31.098Z,10.95
2023-02-02T23:10:37.160Z,13.02
2023-02-02T23:15:41.834Z,11.05
2023-02-02T23:20:48.832Z,9.95
2023-02-02T23:25:54.976Z,6.22
2023-02-02T23:30:59.910Z,9.88
2023-02-02T23:36:06.738Z,9.33
2023-02-02T23:41:12.782Z,7.78
2023-02-02T23:46:18.071Z,8.07
2023-02-02T23:51:22.824Z,9.52
2023-02-02T23:56:29.374Z,10.30
